Time;durP1;ratioP1;P1;durP2;ratioP2;P2;SDS_P1;SDS_P2;PMS_P1;PMS_P2;Temp;Humidity;BMP_temperature;BMP_pressure;BME280_temperature;BME280_humidity;BME280_pressure;Samples;Min_cycle;Max_cycle;Signal;HPM_P1;HPM_P2
2021/06/05 00:00:21;;;;;;;9.45;5.80;;;;;;;16.91;100.00;95855.84;1026134;29;20031;-86
2021/06/05 00:00:53;;;;;;;9.30;6.35;;;;;;;17.01;100.00;95880.34;1024604;29;20023;-86
2021/06/05 00:01:30;;;;;;;8.70;6.65;;;;;;;16.75;100.00;95863.41;1017196;29;20033;-86
2021/06/05 00:02:01;;;;;;;9.20;5.72;;;;;;;16.64;100.00;95845.28;1021849;29;20101;-87
2021/06/05 00:02:32;;;;;;;7.00;5.90;;;;;;;16.49;100.00;95823.31;1020935;29;20019;-87
2021/06/05 00:03:03;;;;;;;7.63;6.00;;;;;;;16.56;100.00;95829.47;1020443;29;20034;-87
2021/06/05 00:03:34;;;;;;;6.95;5.97;;;;;;;16.54;100.00;95836.91;1026657;29;20028;-86
2021/06/05 00:04:14;;;;;;;7.53;6.50;;;;;;;16.71;100.00;95850.63;1017603;29;20019;-86
2021/06/05 00:04:48;;;;;;;7.55;5.80;;;;;;;16.59;100.00;95831.72;1015048;29;20024;-87
2021/06/05 00:05:20;;;;;;;7.00;6.15;;;;;;;16.57;100.00;95823.06;1021311;29;20023;-87
2021/06/05 00:05:56;;;;;;;8.55;5.60;;;;;;;16.51;100.00;95814.03;1017210;29;20025;-87
2021/06/05 00:06:27;;;;;;;6.35;5.63;;;;;;;16.88;100.00;95867.06;1017333;29;20028;-86
2021/06/05 00:06:58;;;;;;;10.70;5.78;;;;;;;16.62;100.00;95831.28;1022560;29;20036;-87
2021/06/05 00:07:28;;;;;;;7.07;5.88;;;;;;;16.89;100.00;95864.13;1016843;29;20044;-87
2021/06/05 00:07:59;;;;;;;7.57;5.78;;;;;;;16.70;100.00;95851.66;1014320;29;20020;-87
2021/06/05 00:08:31;;;;;;;9.43;6.40;;;;;;;16.61;100.00;95840.34;1017629;29;20024;-87
2021/06/05 00:09:02;;;;;;;7.18;5.85;;;;;;;16.53;100.00;95828.06;1014332;29;20115;-88
2021/06/05 00:09:33;;;;;;;6.90;6.20;;;;;;;16.78;100.00;95864.81;1013902;29;20024;-88
2021/06/05 00:10:06;;;;;;;7.75;6.05;;;;;;;16.65;100.00;95855.00;1014709;29;20127;-87
2021/06/05 00:10:39;;;;;;;8.02;6.20;;;;;;;16.60;100.00;95846.78;1020027;29;20020;-87
2021/06/05 00:11:10;;;;;;;8.07;6.47;;;;;;;16.55;100.00;95831.34;1012297;29;20025;-88
2021/06/05 00:11:41;;;;;;;7.53;5.50;;;;;;;16.74;100.00;95877.00;1028315;29;20059;-87
2021/06/05 00:12:13;;;;;;;7.32;6.30;;;;;;;16.56;100.00;95848.22;1016415;29;20072;-89
2021/06/05 00:12:43;;;;;;;11.05;6.82;;;;;;;16.28;100.00;95806.53;1024420;29;20035;-87
2021/06/05 00:13:20;;;;;;;7.45;6.10;;;;;;;16.61;100.00;95858.31;1013782;29;20041;-86
2021/06/05 00:13:55;;;;;;;7.85;6.60;;;;;;;16.68;100.00;95867.13;1028401;29;20003;-89
2021/06/05 00:14:26;;;;;;;9.90;6.60;;;;;;;16.74;100.00;95872.47;1028428;29;20010;-89
2021/06/05 00:14:57;;;;;;;8.18;6.43;;;;;;;16.32;100.00;95820.31;1024324;29;20052;-89
2021/06/05 00:15:31;;;;;;;10.60;6.55;;;;;;;16.35;100.00;95827.94;1022995;29;20030;-90
2021/06/05 00:16:03;;;;;;;8.93;6.68;;;;;;;16.51;100.00;95856.94;1017747;29;20079;-89
2021/06/05 00:16:54;;;;;;;7.40;6.63;;;;;;;16.59;100.00;95893.38;1025856;29;20027;-88
2021/06/05 00:17:24;;;;;;;9.88;6.88;;;;;;;16.27;100.00;95839.75;1024712;29;20170;-87
2021/06/05 00:17:55;;;;;;;9.80;7.47;;;;;;;16.15;100.00;95823.53;1017234;29;20039;-88
2021/06/05 00:18:28;;;;;;;9.38;6.72;;;;;;;16.18;100.00;95820.41;1021183;29;20030;-89
2021/06/05 00:18:59;;;;;;;9.82;7.20;;;;;;;16.28;100.00;95827.16;1017339;29;20035;-89
2021/06/05 00:19:29;;;;;;;8.73;6.10;;;;;;;16.51;100.00;95854.25;1020869;29;20030;-89
2021/06/05 00:20:00;;;;;;;8.20;6.18;;;;;;;16.35;100.00;95831.47;1020640;29;20027;-87
2021/06/05 00:20:31;;;;;;;8.02;6.57;;;;;;;16.35;100.00;95834.16;1021045;29;20035;-88
2021/06/05 00:21:03;;;;;;;8.82;6.93;;;;;;;16.38;100.00;95836.38;1020729;29;20476;-88
2021/06/05 00:21:34;;;;;;;9.98;6.22;;;;;;;16.55;100.00;95860.81;1012998;29;20075;-87
2021/06/05 00:22:04;;;;;;;9.73;7.00;;;;;;;16.32;100.00;95826.53;1020979;29;20074;-87
2021/06/05 00:22:35;;;;;;;8.13;6.65;;;;;;;16.46;100.00;95834.47;1017850;29;20102;-87
2021/06/05 00:23:10;;;;;;;9.45;6.45;;;;;;;16.44;100.00;95836.56;1017554;29;20099;-88
2021/06/05 00:23:41;;;;;;;8.25;6.00;;;;;;;16.41;100.00;95832.47;1025571;29;20015;-89
2021/06/05 00:24:12;;;;;;;11.57;6.90;;;;;;;16.75;100.00;95890.22;1013519;29;20019;-90
2021/06/05 00:24:43;;;;;;;10.38;6.88;;;;;;;16.39;100.00;95829.19;1020901;29;20455;-89
2021/06/05 00:25:14;;;;;;;8.20;6.40;;;;;;;16.61;100.00;95864.50;1020895;29;20060;-87
2021/06/05 00:25:45;;;;;;;7.72;6.93;;;;;;;16.46;100.00;95837.16;1020830;29;20020;-87
2021/06/05 00:26:15;;;;;;;7.60;6.68;;;;;;;16.33;100.00;95820.13;1020784;29;20030;-88
2021/06/05 00:26:46;;;;;;;9.93;7.47;;;;;;;16.42;100.00;95833.28;1024809;29;20443;-88
2021/06/05 00:27:17;;;;;;;8.10;7.20;;;;;;;16.29;100.00;95826.94;1021293;29;20414;-89
2021/06/05 00:27:47;;;;;;;10.43;7.32;;;;;;;16.28;100.00;95819.94;1029059;28;20023;-86
2021/06/05 00:28:18;;;;;;;7.95;6.97;;;;;;;16.38;100.00;95839.06;1020854;29;20046;-88
2021/06/05 00:28:49;;;;;;;8.65;6.97;;;;;;;16.31;100.00;95832.91;1017002;29;20032;-88
2021/06/05 00:29:20;;;;;;;8.88;7.07;;;;;;;16.25;100.00;95820.38;1021443;29;20059;-89
2021/06/05 00:29:50;;;;;;;9.25;6.93;;;;;;;16.32;100.00;95834.56;1025152;29;20021;-87
2021/06/05 00:30:22;;;;;;;7.82;6.93;;;;;;;16.30;100.00;95825.94;1021242;29;20027;-88
2021/06/05 00:30:53;;;;;;;9.90;7.20;;;;;;;16.37;100.00;95834.75;1028940;28;20015;-89
2021/06/05 00:31:23;;;;;;;8.25;7.05;;;;;;;16.70;100.00;95884.66;1021459;29;20500;-88
2021/06/05 00:31:54;;;;;;;9.70;6.72;;;;;;;16.54;100.00;95848.44;1018372;29;20019;-88
2021/06/05 00:32:24;;;;;;;8.93;7.32;;;;;;;16.59;100.00;95853.16;1023844;29;20016;-87
2021/06/05 00:32:55;;;;;;;10.27;7.53;;;;;;;16.59;100.00;95861.22;1031790;28;20022;-89
2021/06/05 00:33:26;;;;;;;9.35;7.28;;;;;;;16.64;100.00;95864.06;1023468;29;20024;-88
2021/06/05 00:33:57;;;;;;;9.57;7.30;;;;;;;16.43;100.00;95840.28;1019874;29;20022;-87
2021/06/05 00:34:27;;;;;;;8.40;7.20;;;;;;;16.38;100.00;95833.69;1020221;29;20016;-88
2021/06/05 00:34:58;;;;;;;8.13;7.13;;;;;;;16.20;100.00;95809.50;1027991;28;20054;-86
2021/06/05 00:35:29;;;;;;;8.30;7.20;;;;;;;16.32;100.00;95829.22;1020134;29;20039;-87
2021/06/05 00:36:00;;;;;;;8.15;7.07;;;;;;;16.24;100.00;95816.06;1023789;29;20016;-86
2021/06/05 00:36:31;;;;;;;10.18;7.18;;;;;;;16.28;100.00;95814.56;1024254;29;20473;-87
2021/06/05 00:37:02;;;;;;;8.25;6.90;;;;;;;16.42;100.00;95841.31;1024228;29;20023;-87
2021/06/05 00:37:33;;;;;;;8.60;7.70;;;;;;;16.30;100.00;95823.25;1016304;29;20017;-87
2021/06/05 00:38:04;;;;;;;8.95;7.43;;;;;;;16.40;100.00;95836.97;1024299;29;20016;-88
2021/06/05 00:38:36;;;;;;;9.10;7.07;;;;;;;16.29;100.00;95828.81;1032214;28;20026;-87
2021/06/05 00:39:08;;;;;;;10.55;7.78;;;;;;;16.38;100.00;95833.69;1020128;29;20004;-88
2021/06/05 00:39:38;;;;;;;7.70;6.90;;;;;;;16.51;100.00;95845.38;1031992;28;20026;-87
2021/06/05 00:40:10;;;;;;;10.25;7.72;;;;;;;16.48;100.00;95843.16;1028153;29;20004;-89
2021/06/05 00:40:44;;;;;;;9.65;7.25;;;;;;;16.72;100.00;95882.59;1016318;29;20017;-88
2021/06/05 00:41:17;;;;;;;8.57;6.80;;;;;;;16.43;100.00;95832.25;1028415;29;20019;-86
2021/06/05 00:41:47;;;;;;;9.38;7.15;;;;;;;16.45;100.00;95832.84;1024198;29;20083;-87
2021/06/05 00:42:18;;;;;;;7.70;6.60;;;;;;;16.49;100.00;95826.00;1024127;29;20095;-86
2021/06/05 00:42:48;;;;;;;8.38;7.40;;;;;;;16.59;100.00;95843.25;1027917;28;20030;-89
2021/06/05 00:43:23;;;;;;;8.98;6.90;;;;;;;16.83;100.00;95883.75;1024564;29;20012;-86
2021/06/05 00:43:57;;;;;;;9.23;6.90;;;;;;;16.53;100.00;95828.06;1024473;29;20039;-87
2021/06/05 00:44:27;;;;;;;9.25;7.13;;;;;;;16.54;100.00;95832.34;1028590;29;20007;-88
2021/06/05 00:44:58;;;;;;;8.90;7.25;;;;;;;16.83;100.00;95880.25;1020419;29;20024;-87
2021/06/05 00:45:32;;;;;;;9.88;7.20;;;;;;;16.73;100.00;95867.31;1020196;29;20048;-88
2021/06/05 00:46:03;;;;;;;10.40;7.25;;;;;;;16.50;100.00;95825.78;1028751;29;20039;-88
2021/06/05 00:46:33;;;;;;;7.88;6.97;;;;;;;16.40;100.00;95820.91;1023984;29;20019;-88
2021/06/05 00:47:04;;;;;;;10.68;7.70;;;;;;;16.51;100.00;95845.38;1024026;29;20020;-87
2021/06/05 00:47:35;;;;;;;14.07;7.82;;;;;;;16.41;100.00;95832.47;1020397;29;20044;-88
2021/06/05 00:48:06;;;;;;;11.20;7.82;;;;;;;16.34;100.00;95820.97;1024344;29;20020;-87
2021/06/05 00:48:37;;;;;;;10.82;7.38;;;;;;;16.28;100.00;95827.97;1020456;29;20008;-88
2021/06/05 00:49:08;;;;;;;10.60;8.45;;;;;;;16.37;100.00;95848.16;1022646;29;20024;-87
2021/06/05 00:49:38;;;;;;;9.18;7.50;;;;;;;16.09;100.00;95797.56;1020471;29;20028;-87
2021/06/05 00:50:10;;;;;;;11.02;7.78;;;;;;;16.18;100.00;95801.66;1020528;29;20063;-87
2021/06/05 00:50:41;;;;;;;8.55;7.65;;;;;;;16.44;100.00;95841.91;1024262;29;20016;-88
2021/06/05 00:51:16;;;;;;;9.98;7.45;;;;;;;16.34;100.00;95813.72;1024426;28;20095;-89
2021/06/05 00:51:51;;;;;;;9.07;6.93;;;;;;;16.19;100.00;95794.44;1028256;28;20544;-88
2021/06/05 00:52:22;;;;;;;8.57;6.90;;;;;;;16.76;100.00;95878.44;1024568;29;20026;-87
2021/06/05 00:52:53;;;;;;;8.30;7.35;;;;;;;16.63;100.00;95862.41;1024134;29;20026;-89
2021/06/05 00:53:25;;;;;;;8.80;7.32;;;;;;;16.36;100.00;95818.88;1024378;29;20004;-87
2021/06/05 00:53:57;;;;;;;9.02;7.40;;;;;;;16.49;100.00;95850.13;1024546;29;20027;-86
2021/06/05 00:54:28;;;;;;;8.45;7.30;;;;;;;16.49;100.00;95844.78;1029360;29;20042;-88
2021/06/05 00:54:58;;;;;;;10.00;7.78;;;;;;;16.63;100.00;95859.72;1029196;29;20098;-86
2021/06/05 00:55:31;;;;;;;9.25;7.57;;;;;;;16.77;100.00;95882.75;1021062;29;20028;-88
2021/06/05 00:56:02;;;;;;;11.57;7.85;;;;;;;16.39;100.00;95824.63;1025332;29;20055;-87
2021/06/05 00:56:33;;;;;;;10.55;8.07;;;;;;;16.37;100.00;95826.72;1025620;29;20031;-87
2021/06/05 00:57:05;;;;;;;10.32;8.25;;;;;;;16.45;100.00;95849.75;1025356;29;20023;-87
2021/06/05 00:57:35;;;;;;;11.45;7.78;;;;;;;16.41;100.00;95835.13;1021683;29;20008;-90
2021/06/05 00:58:06;;;;;;;9.88;7.13;;;;;;;16.36;100.00;95841.13;1018054;29;20025;-90
2021/06/05 00:58:37;;;;;;;8.43;7.28;;;;;;;16.39;100.00;95840.72;1025808;28;20346;-92
2021/06/05 00:59:08;;;;;;;8.93;7.28;;;;;;;16.34;100.00;95826.31;1033868;28;20007;-90
2021/06/05 00:59:38;;;;;;;8.25;6.97;;;;;;;16.40;100.00;95826.25;1025778;28;20004;-89
2021/06/05 01:00:31;;;;;;;9.02;7.45;;;;;;;16.37;100.00;95829.38;1029827;28;20032;-88
2021/06/05 01:01:05;;;;;;;10.07;7.57;;;;;;;16.77;100.00;95880.09;1027894;28;20107;-87
2021/06/05 01:01:35;;;;;;;9.25;6.72;;;;;;;16.58;100.00;95846.19;1031673;28;20097;-87
2021/06/05 01:02:06;;;;;;;8.80;6.93;;;;;;;16.52;100.00;95829.06;1025597;28;20051;-88
2021/06/05 01:02:37;;;;;;;8.20;6.90;;;;;;;16.53;100.00;95830.72;1029792;29;19999;-89
2021/06/05 01:03:08;;;;;;;7.90;6.57;;;;;;;16.43;100.00;95819.66;1021847;29;20051;-90
2021/06/05 01:03:39;;;;;;;11.05;6.80;;;;;;;16.63;100.00;95845.50;1025778;28;20024;-90
2021/06/05 01:04:10;;;;;;;10.50;6.57;;;;;;;16.84;100.00;95873.88;1033905;28;20042;-91
2021/06/05 01:04:41;;;;;;;7.55;6.28;;;;;;;16.50;100.00;95830.34;1029842;28;20042;-90
2021/06/05 01:05:11;;;;;;;10.07;6.38;;;;;;;16.62;100.00;95841.22;1021941;29;20017;-88
2021/06/05 01:05:42;;;;;;;9.13;6.43;;;;;;;16.39;100.00;95813.91;1029771;28;20051;-89
2021/06/05 01:06:19;;;;;;;10.52;6.68;;;;;;;16.70;100.00;95871.25;1029750;28;20022;-87
2021/06/05 01:07:11;;;;;;;8.02;6.25;;;;;;;16.49;100.00;95828.69;1017821;29;20088;-87
2021/06/05 01:07:42;;;;;;;7.55;5.60;;;;;;;16.52;100.00;95834.44;1029349;29;20028;-88
2021/06/05 01:08:44;;;;;;;9.80;6.18;;;;;;;16.57;100.00;95861.44;1021749;29;20110;-88
2021/06/05 01:09:16;;;;;;;8.13;5.50;;;;;;;16.74;100.00;95880.50;1025348;28;20118;-90
2021/06/05 01:09:58;;;;;;;7.25;6.13;;;;;;;16.73;100.00;95884.22;1033489;28;20115;-86
2021/06/05 01:10:30;;;;;;;7.60;6.10;;;;;;;16.38;100.00;95817.63;1021794;29;20043;-86
2021/06/05 01:11:41;;;;;;;6.78;5.85;;;;;;;16.75;100.00;95881.31;1025321;29;20517;-85
2021/06/05 01:12:36;;;;;;;7.45;5.93;;;;;;;16.47;100.00;95847.66;1024925;29;20023;-85
2021/06/05 01:13:12;;;;;;;7.57;5.90;;;;;;;16.78;100.00;95880.91;1024734;29;20023;-85
2021/06/05 01:14:09;;;;;;;6.82;6.00;;;;;;;16.78;100.00;95879.03;1021185;29;20025;-86
2021/06/05 01:14:52;;;;;;;8.63;6.15;;;;;;;16.70;100.00;95868.59;1029040;29;20031;-86
2021/06/05 01:15:38;;;;;;;8.88;6.60;;;;;;;16.29;100.00;95793.97;1021164;29;20020;-88
2021/06/05 01:16:13;;;;;;;7.68;6.00;;;;;;;16.83;100.00;95877.56;1028949;28;20015;-86
2021/06/05 01:16:45;;;;;;;9.35;6.30;;;;;;;16.58;100.00;95856.91;1016859;29;20115;-86
2021/06/05 01:17:24;;;;;;;8.85;5.70;;;;;;;16.32;100.00;95810.44;1024942;29;20024;-85
2021/06/05 01:18:01;;;;;;;6.60;5.88;;;;;;;16.59;100.00;95853.16;1024451;29;20034;-85
2021/06/05 01:18:41;;;;;;;12.27;6.07;;;;;;;16.43;100.00;95824.22;1024551;29;20032;-86
2021/06/05 01:19:44;;;;;;;6.70;5.88;;;;;;;16.61;100.00;95861.00;1027577;29;20023;-85
2021/06/05 01:20:18;;;;;;;9.02;6.05;;;;;;;16.74;100.00;95880.50;1018289;29;20056;-87
2021/06/05 01:21:11;;;;;;;8.43;6.15;;;;;;;16.72;100.00;95887.13;1026104;28;20171;-87
2021/06/05 01:22:18;;;;;;;9.45;6.45;;;;;;;16.74;100.00;95877.00;1022017;29;20020;-86
2021/06/05 01:23:04;;;;;;;7.55;5.90;;;;;;;16.66;100.00;95875.41;1028215;28;20035;-88
2021/06/05 01:23:51;;;;;;;6.18;5.25;;;;;;;16.28;100.00;95811.91;1024632;29;20012;-87
2021/06/05 01:24:28;;;;;;;7.45;5.45;;;;;;;16.72;100.00;95877.22;1031031;28;20037;-87
2021/06/05 01:25:19;;;;;;;7.30;5.97;;;;;;;16.76;100.00;95886.47;1030614;28;20105;-86
2021/06/05 01:26:01;;;;;;;12.18;6.05;;;;;;;16.48;100.00;95840.47;1029910;28;20022;-87
2021/06/05 01:26:33;;;;;;;6.03;5.43;;;;;;;16.72;100.00;95893.31;1021612;29;20549;-87
2021/06/05 01:27:09;;;;;;;6.50;5.57;;;;;;;16.76;100.00;95886.47;1017911;29;20447;-86
2021/06/05 01:27:44;;;;;;;7.15;5.53;;;;;;;16.67;100.00;95873.56;1017673;29;20020;-87
2021/06/05 01:28:20;;;;;;;6.28;5.13;;;;;;;16.58;100.00;95854.22;1021941;29;20494;-86
2021/06/05 01:28:56;;;;;;;7.95;5.80;;;;;;;16.74;100.00;95890.44;1021857;29;20049;-86
2021/06/05 01:29:31;;;;;;;6.90;6.18;;;;;;;16.69;100.00;95885.69;1021449;28;20032;-86
2021/06/05 01:30:17;;;;;;;7.97;5.63;;;;;;;16.40;100.00;95852.25;1021768;29;20139;-85
2021/06/05 01:30:50;;;;;;;7.18;5.90;;;;;;;16.45;100.00;95846.25;1029380;28;20025;-86
2021/06/05 01:31:29;;;;;;;7.15;5.57;;;;;;;16.42;100.00;95844.81;1021344;29;20023;-87
2021/06/05 01:32:01;;;;;;;7.75;6.18;;;;;;;16.38;100.00;95855.13;1021831;29;20016;-86
2021/06/05 01:32:32;;;;;;;8.20;6.60;;;;;;;16.43;100.00;95889.34;1021807;29;20024;-87
2021/06/05 01:33:03;;;;;;;6.50;5.78;;;;;;;16.44;100.00;95882.97;1022232;29;20027;-85
2021/06/05 01:33:34;;;;;;;8.05;6.15;;;;;;;16.03;100.00;95826.03;1018807;29;20032;-86
2021/06/05 01:34:05;;;;;;;7.07;5.95;;;;;;;16.15;100.00;95842.28;1028297;29;20474;-86
2021/06/05 01:34:41;;;;;;;7.80;6.20;;;;;;;16.47;100.00;95889.75;1025519;28;20039;-89
2021/06/05 01:35:13;;;;;;;7.60;5.82;;;;;;;16.23;100.00;95862.63;1025653;28;20008;-90
2021/06/05 01:35:44;;;;;;;7.50;6.05;;;;;;;15.97;100.00;95818.03;1021573;29;20040;-86
2021/06/05 01:36:14;;;;;;;8.80;6.70;;;;;;;15.96;100.00;95808.38;1027996;28;20034;-87
2021/06/05 01:36:47;;;;;;;8.65;6.32;;;;;;;16.16;100.00;95829.69;1019774;29;20024;-86
2021/06/05 01:37:18;;;;;;;7.80;5.53;;;;;;;16.15;100.00;95834.25;1026477;29;20023;-85
2021/06/05 01:37:48;;;;;;;7.30;5.55;;;;;;;16.25;100.00;95841.84;1017911;29;20032;-87
2021/06/05 01:38:19;;;;;;;7.43;6.05;;;;;;;16.14;100.00;95818.38;1025993;29;20027;-86
2021/06/05 01:38:51;;;;;;;6.85;5.57;;;;;;;16.33;100.00;95857.63;1017917;29;20036;-85
2021/06/05 01:39:26;;;;;;;6.07;5.47;;;;;;;16.36;100.00;95851.03;1021832;29;20083;-86
2021/06/05 01:39:57;;;;;;;6.97;6.03;;;;;;;16.42;100.00;95857.41;1025753;29;20023;-86
2021/06/05 01:40:28;;;;;;;6.65;5.88;;;;;;;16.16;100.00;95816.31;1017786;29;20020;-87
2021/06/05 01:40:58;;;;;;;8.13;6.32;;;;;;;16.63;100.00;95891.91;1021472;29;20137;-86
2021/06/05 01:41:29;;;;;;;8.02;6.05;;;;;;;16.20;100.00;95830.94;1021710;29;20036;-86
2021/06/05 01:42:04;;;;;;;8.32;5.45;;;;;;;16.25;100.00;95843.66;1021462;29;20063;-86
2021/06/05 01:42:35;;;;;;;10.45;6.28;;;;;;;16.22;100.00;95839.56;1017817;29;20127;-87
2021/06/05 01:43:06;;;;;;;6.60;4.90;;;;;;;16.56;100.00;95893.81;1013688;29;20032;-86
2021/06/05 01:43:36;;;;;;;7.60;5.07;;;;;;;16.40;100.00;95874.50;1017842;29;20482;-85
2021/06/05 01:44:07;;;;;;;6.10;5.28;;;;;;;16.08;100.00;95822.75;1021955;29;20066;-86
2021/06/05 01:44:38;;;;;;;6.57;5.32;;;;;;;16.15;100.00;95830.75;1029932;28;20029;-86
2021/06/05 01:45:13;;;;;;;7.05;5.15;;;;;;;16.23;100.00;95865.31;1021810;29;20030;-86
2021/06/05 01:45:44;;;;;;;6.00;5.35;;;;;;;16.15;100.00;95849.50;1025804;29;20087;-86
2021/06/05 01:46:15;;;;;;;6.47;5.35;;;;;;;15.98;100.00;95831.22;1021792;29;20030;-87
2021/06/05 01:46:47;;;;;;;7.20;5.45;;;;;;;16.09;100.00;95844.97;1029987;28;20019;-87
2021/06/05 01:47:18;;;;;;;7.72;5.25;;;;;;;15.99;100.00;95845.47;1019148;29;20030;-87
2021/06/05 01:47:50;;;;;;;7.70;5.47;;;;;;;16.19;100.00;95872.16;1020796;29;20043;-88
2021/06/05 01:48:21;;;;;;;6.03;5.35;;;;;;;16.21;100.00;95889.69;1024695;29;20050;-87
2021/06/05 01:48:52;;;;;;;7.00;5.72;;;;;;;15.79;100.00;95826.78;1021809;29;20016;-87
2021/06/05 01:49:23;;;;;;;6.10;5.10;;;;;;;16.06;100.00;95865.00;1029446;29;20027;-88
2021/06/05 01:49:54;;;;;;;7.57;5.38;;;;;;;16.00;100.00;95871.19;1025580;28;20030;-87
2021/06/05 01:50:28;;;;;;;9.00;5.35;;;;;;;16.27;100.00;95900.59;1021702;29;20023;-90
2021/06/05 01:51:04;;;;;;;7.75;5.40;;;;;;;16.03;100.00;95868.09;1024982;29;20027;-88
2021/06/05 01:51:39;;;;;;;6.88;5.68;;;;;;;15.78;100.00;95854.59;1025597;28;20072;-88
2021/06/05 01:52:13;;;;;;;6.57;5.53;;;;;;;15.75;100.00;95855.00;1029690;28;20104;-88
2021/06/05 01:52:44;;;;;;;5.85;5.15;;;;;;;15.79;100.00;95845.50;1029831;28;20036;-90
2021/06/05 01:53:29;;;;;;;6.32;4.85;;;;;;;16.17;100.00;95903.69;1025752;28;20019;-90
2021/06/05 01:54:06;;;;;;;6.30;5.00;;;;;;;15.84;100.00;95859.91;1025491;28;20017;-90
2021/06/05 01:54:43;;;;;;;6.30;5.10;;;;;;;15.77;100.00;95860.97;1021571;29;20023;-90
2021/06/05 01:55:16;;;;;;;7.45;5.22;;;;;;;15.95;100.00;95895.09;1021722;29;20043;-88
2021/06/05 01:56:14;;;;;;;6.95;5.10;;;;;;;15.79;100.00;95867.75;1025687;28;20056;-92
2021/06/05 01:56:53;;;;;;;6.45;5.03;;;;;;;15.83;100.00;95871.69;1018770;29;20088;-91
2021/06/05 01:57:27;;;;;;;7.55;5.40;;;;;;;15.94;100.00;95906.88;1029626;28;20015;-89
2021/06/05 01:58:00;;;;;;;7.07;5.18;;;;;;;15.46;100.00;95830.34;1017514;29;20056;-85
2021/06/05 01:58:32;;;;;;;6.35;5.25;;;;;;;15.84;100.00;95883.19;1025560;28;20053;-89
2021/06/05 01:59:04;;;;;;;7.35;5.07;;;;;;;15.52;100.00;95834.03;1029431;29;20022;-88
2021/06/05 01:59:36;;;;;;;6.80;5.70;;;;;;;15.38;100.00;95827.88;1021624;29;20016;-87
2021/06/05 02:00:15;;;;;;;6.68;5.13;;;;;;;15.65;100.00;95861.56;1025633;28;20012;-88
2021/06/05 02:00:47;;;;;;;6.40;5.50;;;;;;;15.50;100.00;95844.13;1025134;29;20143;-87
2021/06/05 02:01:18;;;;;;;8.02;5.90;;;;;;;15.58;100.00;95878.69;1021336;29;20520;-88
2021/06/05 02:01:50;;;;;;;5.97;5.38;;;;;;;15.54;100.00;95875.63;1029579;28;20017;-85
2021/06/05 02:02:21;;;;;;;7.32;5.35;;;;;;;15.30;100.00;95841.50;1029734;28;20059;-86
2021/06/05 02:03:03;;;;;;;7.82;5.78;;;;;;;15.58;100.00;95890.22;1025758;28;20055;-88
2021/06/05 02:03:50;;;;;;;7.20;5.93;;;;;;;15.32;100.00;95834.06;1051850;23;20108;-91
2021/06/05 02:04:21;;;;;;;6.38;5.63;;;;;;;15.38;100.00;95852.81;1020848;29;20024;-89
2021/06/05 02:04:52;;;;;;;6.80;5.60;;;;;;;15.25;100.00;95844.78;1025183;29;20015;-90
2021/06/05 02:05:24;;;;;;;7.35;5.25;;;;;;;15.44;100.00;95872.56;1024667;29;20016;-93
2021/06/05 02:05:55;;;;;;;6.72;5.53;;;;;;;15.04;100.00;95805.72;1024596;29;20047;-91
2021/06/05 02:06:26;;;;;;;6.35;5.60;;;;;;;15.30;100.00;95844.97;1024723;29;20030;-90
2021/06/05 02:06:56;;;;;;;6.35;5.72;;;;;;;15.13;100.00;95831.22;1020792;29;20020;-91
2021/06/05 02:07:27;;;;;;;7.43;5.20;;;;;;;15.38;100.00;95854.63;1028489;29;20019;-93
2021/06/05 02:07:58;;;;;;;7.38;6.10;;;;;;;15.38;100.00;95868.00;1024886;29;20007;-90
2021/06/05 02:08:28;;;;;;;6.95;5.93;;;;;;;15.23;100.00;95845.00;1020955;29;20020;-90
2021/06/05 02:09:02;;;;;;;6.65;5.93;;;;;;;15.40;100.00;95869.47;1016791;29;20040;-90
2021/06/05 02:09:32;;;;;;;6.68;5.50;;;;;;;15.35;100.00;95857.75;1013360;29;20023;-90
2021/06/05 02:10:09;;;;;;;9.02;6.10;;;;;;;15.68;100.00;95924.63;1020739;29;20032;-90
2021/06/05 02:10:40;;;;;;;6.22;5.63;;;;;;;15.06;100.00;95827.72;1016888;29;20021;-89
2021/06/05 02:11:13;;;;;;;6.32;5.57;;;;;;;15.70;100.00;95913.69;1024607;29;20024;-89
2021/06/05 02:11:51;;;;;;;10.93;5.78;;;;;;;15.42;100.00;95890.69;1016453;29;20096;-90
2021/06/05 02:12:34;;;;;;;7.67;6.03;;;;;;;15.37;100.00;95882.44;1024663;29;20015;-91
2021/06/05 02:13:06;;;;;;;7.72;6.47;;;;;;;15.16;100.00;95860.22;1024013;29;20271;-91
2021/06/05 02:13:45;;;;;;;6.80;5.95;;;;;;;15.36;100.00;95895.00;1021045;29;20158;-90
2021/06/05 02:14:18;;;;;;;8.02;6.53;;;;;;;15.36;100.00;95883.47;1020841;29;20020;-91
2021/06/05 02:15:26;;;;;;;7.07;6.38;;;;;;;15.57;100.00;95912.69;1025224;29;20004;-91
2021/06/05 02:15:58;;;;;;;7.30;5.80;;;;;;;15.17;100.00;95855.69;1021474;29;20031;-91
2021/06/05 02:16:31;;;;;;;7.82;6.57;;;;;;;14.95;100.00;95828.34;1017642;29;20065;-90
2021/06/05 02:18:31;;;;;;;8.98;6.70;;;;;;;15.24;100.00;95877.94;1025387;29;20016;-89
2021/06/05 02:24:22;;;;;;;7.32;6.57;;;;;;;15.39;100.00;95899.09;1033595;28;20127;-90
2021/06/05 02:24:56;;;;;;;8.23;7.43;;;;;;;14.87;100.00;95827.53;1021415;29;20016;-90
2021/06/05 02:25:26;;;;;;;8.60;6.90;;;;;;;15.00;100.00;95849.97;1021297;29;20016;-91
2021/06/05 02:26:01;;;;;;;10.52;7.18;;;;;;;15.31;100.00;95904.66;1016993;29;20016;-90
2021/06/05 02:26:33;;;;;;;7.93;7.13;;;;;;;14.88;100.00;95836.38;1024272;29;20147;-90
2021/06/05 02:27:10;;;;;;;9.85;7.53;;;;;;;14.87;100.00;95832.03;1023964;29;20049;-89
2021/06/05 02:27:41;;;;;;;9.35;7.45;;;;;;;15.14;100.00;95878.34;1019982;29;20024;-91
2021/06/05 02:28:14;;;;;;;10.15;7.13;;;;;;;15.31;100.00;95894.81;1016051;29;20028;-90
2021/06/05 04:47:23;;;;;;;10.85;6.65;;;;;;;15.47;100.00;95912.28;1023625;29;20031;-90
2021/06/05 04:47:54;;;;;;;9.65;6.30;;;;;;;15.43;100.00;95916.38;1017295;29;20488;-90
2021/06/05 04:48:25;;;;;;;9.02;6.78;;;;;;;15.33;100.00;95889.25;1013594;29;20117;-89
2021/06/05 04:48:56;;;;;;;9.68;6.70;;;;;;;15.22;100.00;95883.50;1009521;29;20028;-88
2021/06/05 04:49:27;;;;;;;11.45;6.75;;;;;;;15.39;100.00;95899.09;1017339;29;20032;-90
2021/06/05 04:49:57;;;;;;;10.60;7.13;;;;;;;15.44;100.00;95904.66;1017125;29;20008;-89
2021/06/05 04:50:30;;;;;;;12.38;6.70;;;;;;;15.39;100.00;95901.78;1017357;29;20037;-92
2021/06/05 04:51:02;;;;;;;8.63;7.05;;;;;;;15.37;100.00;95895.81;1017231;29;20021;-89
2021/06/05 04:51:36;;;;;;;9.13;6.75;;;;;;;15.25;100.00;95882.25;1009579;29;20013;-90
2021/06/05 04:52:07;;;;;;;9.55;7.13;;;;;;;15.61;100.00;95931.84;1009451;29;20089;-89
2021/06/05 04:52:37;;;;;;;8.30;6.55;;;;;;;15.59;100.00;95915.16;1013331;29;20021;-90
2021/06/05 04:53:08;;;;;;;9.43;6.53;;;;;;;15.49;100.00;95899.50;1013381;29;20012;-90
2021/06/05 04:53:39;;;;;;;9.38;7.25;;;;;;;15.46;100.00;95905.28;1013437;29;20025;-91
2021/06/05 04:54:10;;;;;;;9.30;6.60;;;;;;;15.51;100.00;95908.16;1013179;29;20036;-90
2021/06/05 04:54:40;;;;;;;11.70;6.63;;;;;;;15.50;100.00;95898.50;1017114;29;20008;-90
2021/06/05 04:55:11;;;;;;;7.10;6.22;;;;;;;15.37;100.00;95879.78;1020948;29;20028;-89
2021/06/05 04:55:42;;;;;;;8.27;6.60;;;;;;;15.35;100.00;95877.28;1013145;29;20058;-90
2021/06/05 04:56:13;;;;;;;8.90;6.85;;;;;;;15.50;100.00;95894.97;1017267;29;20057;-90
2021/06/05 04:56:46;;;;;;;8.00;6.47;;;;;;;15.58;100.00;95900.13;1009495;29;20046;-89
2021/06/05 04:57:17;;;;;;;8.15;6.60;;;;;;;15.52;100.00;95869.66;1021206;29;20083;-90
2021/06/05 04:57:48;;;;;;;7.28;6.20;;;;;;;15.68;100.00;95900.50;1017344;29;20035;-90
2021/06/05 04:58:18;;;;;;;9.75;6.03;;;;;;;15.59;100.00;95896.44;1017181;29;20005;-89
2021/06/05 04:58:49;;;;;;;9.10;6.38;;;;;;;15.60;100.00;95896.19;1009347;29;20085;-89
2021/06/05 04:59:20;;;;;;;11.20;6.43;;;;;;;15.64;100.00;95900.13;1017036;29;20025;-90
2021/06/05 04:59:51;;;;;;;6.60;5.63;;;;;;;15.80;100.00;95914.94;1009634;29;20021;-90
2021/06/05 05:00:29;;;;;;;6.50;5.75;;;;;;;15.62;100.00;95879.91;1017133;29;20122;-89
2021/06/05 05:01:00;;;;;;;8.25;6.00;;;;;;;15.79;100.00;95899.88;1017106;29;20101;-90
2021/06/05 05:01:31;;;;;;;8.65;5.85;;;;;;;15.62;100.00;95871.88;1013390;29;20062;-90
2021/06/05 05:02:02;;;;;;;10.40;6.13;;;;;;;15.67;100.00;95895.38;1013356;29;20017;-90
2021/06/05 05:02:32;;;;;;;6.80;5.28;;;;;;;15.59;100.00;95870.47;1013171;29;20025;-90